createdAt,value
2017-05-14T00:00:50.933Z,11.78
2017-05-14T00:01:50.871Z,11.72
2017-05-14T00:02:50.831Z,11.68
2017-05-14T00:03:50.822Z,11.73
2017-05-14T00:04:50.832Z,11.73
2017-05-14T00:05:50.853Z,11.78
2017-05-14T00:06:50.804Z,11.79
2017-05-14T00:07:50.829Z,11.79
2017-05-14T00:08:50.825Z,11.76
2017-05-14T00:09:50.838Z,11.72
2017-05-14T00:10:50.828Z,11.67
2017-05-14T00:11:50.835Z,11.60
2017-05-14T00:12:50.827Z,11.57
2017-05-14T00:13:50.805Z,11.51
2017-05-14T00:14:50.821Z,11.49
2017-05-14T00:15:50.836Z,11.43
2017-05-14T00:16:50.839Z,11.36
2017-05-14T00:17:50.882Z,11.31
2017-05-14T00:18:50.827Z,11.28
2017-05-14T00:19:50.880Z,11.29
2017-05-14T00:20:50.826Z,11.27
2017-05-14T00:21:50.827Z,11.27
2017-05-14T00:22:50.830Z,11.22
2017-05-14T00:23:50.828Z,11.22
2017-05-14T00:24:50.837Z,11.20
2017-05-14T00:25:50.841Z,11.20
2017-05-14T00:26:50.889Z,11.18
2017-05-14T00:27:50.835Z,11.24
2017-05-14T00:28:50.891Z,11.22
2017-05-14T00:29:50.845Z,11.17
2017-05-14T00:30:50.835Z,11.16
2017-05-14T00:31:50.845Z,11.13
2017-05-14T00:32:50.850Z,11.09
2017-05-14T00:33:50.848Z,11.07
2017-05-14T00:34:51.010Z,11.05
2017-05-14T00:35:50.811Z,10.98
2017-05-14T00:36:50.844Z,10.95
2017-05-14T00:37:50.866Z,10.91
2017-05-14T00:38:50.841Z,10.88
2017-05-14T00:39:50.839Z,10.86
2017-05-14T00:40:50.858Z,10.86
2017-05-14T00:41:50.815Z,10.81
2017-05-14T00:42:50.843Z,10.81
2017-05-14T00:43:50.835Z,10.86
2017-05-14T00:44:50.945Z,10.91
2017-05-14T00:45:50.845Z,10.90
2017-05-14T00:46:50.837Z,10.90
2017-05-14T00:47:50.778Z,10.97
2017-05-14T00:48:50.857Z,10.95
2017-05-14T00:49:50.894Z,10.97
2017-05-14T00:50:50.853Z,10.94
2017-05-14T00:51:50.853Z,10.90
2017-05-14T00:52:50.853Z,10.87
2017-05-14T00:53:50.967Z,10.84
2017-05-14T00:54:50.857Z,10.81
2017-05-14T00:55:50.895Z,10.77
2017-05-14T00:56:50.858Z,10.72
2017-05-14T00:57:50.858Z,10.68
2017-05-14T00:58:50.931Z,10.65
2017-05-14T00:59:50.828Z,10.61
2017-05-14T01:00:50.828Z,10.57
2017-05-14T01:01:50.829Z,10.56
2017-05-14T01:02:50.829Z,10.53
2017-05-14T01:03:50.832Z,10.52
2017-05-14T01:04:50.830Z,10.52
2017-05-14T01:05:50.873Z,10.49
2017-05-14T01:06:50.832Z,10.47
2017-05-14T01:07:50.834Z,10.47
2017-05-14T01:08:50.836Z,10.47
2017-05-14T01:09:50.825Z,10.45
2017-05-14T01:10:50.828Z,10.45
2017-05-14T01:11:50.830Z,10.46
2017-05-14T01:12:50.829Z,10.46
2017-05-14T01:13:50.827Z,10.45
2017-05-14T01:14:50.824Z,10.45
2017-05-14T01:15:50.822Z,10.42
2017-05-14T01:16:50.826Z,10.39
2017-05-14T01:17:50.832Z,10.41
2017-05-14T01:18:50.821Z,10.42
2017-05-14T01:19:50.846Z,10.47
2017-05-14T01:20:50.862Z,10.46
2017-05-14T01:21:50.908Z,10.46
2017-05-14T01:22:50.860Z,10.47
2017-05-14T01:23:50.857Z,10.47
2017-05-14T01:24:50.862Z,10.45
2017-05-14T01:25:50.864Z,10.46
2017-05-14T01:26:50.855Z,10.45
2017-05-14T01:27:50.884Z,10.43
2017-05-14T01:28:50.867Z,10.46
2017-05-14T01:29:50.847Z,10.49
2017-05-14T01:30:50.843Z,10.50
2017-05-14T01:31:50.845Z,10.61
2017-05-14T01:32:50.846Z,10.67
2017-05-14T01:33:50.845Z,10.69
2017-05-14T01:34:50.845Z,10.72
2017-05-14T01:35:50.843Z,10.74
2017-05-14T01:36:50.849Z,10.75
2017-05-14T01:37:50.849Z,10.74
2017-05-14T01:38:50.848Z,10.74
2017-05-14T01:39:50.871Z,10.75
2017-05-14T01:40:50.897Z,10.74
2017-05-14T01:41:50.849Z,10.74
2017-05-14T01:42:50.883Z,10.74
2017-05-14T01:43:50.869Z,10.79
2017-05-14T01:44:50.882Z,10.77
2017-05-14T01:45:50.886Z,10.79
2017-05-14T01:46:50.878Z,10.84
2017-05-14T01:47:50.885Z,10.84
2017-05-14T01:48:50.865Z,10.84
2017-05-14T01:49:50.858Z,10.86
2017-05-14T01:50:50.889Z,10.86
2017-05-14T01:51:50.853Z,10.87
2017-05-14T01:52:50.874Z,10.88
2017-05-14T01:53:50.888Z,10.91
2017-05-14T01:54:50.891Z,10.91
2017-05-14T01:55:50.881Z,10.91
2017-05-14T01:56:50.872Z,10.93
2017-05-14T01:57:50.901Z,10.90
2017-05-14T01:58:50.887Z,10.93
2017-05-14T01:59:50.857Z,10.91
2017-05-14T02:00:50.857Z,10.93
2017-05-14T02:01:50.862Z,10.93
2017-05-14T02:02:50.877Z,10.94
2017-05-14T02:03:50.879Z,10.94
2017-05-14T02:04:50.861Z,10.95
2017-05-14T02:05:50.863Z,10.97
2017-05-14T02:06:50.863Z,11.00
2017-05-14T02:07:50.862Z,11.05
2017-05-14T02:08:50.910Z,11.09
2017-05-14T02:09:50.866Z,11.10
2017-05-14T02:10:50.865Z,11.11
2017-05-14T02:11:50.868Z,11.11
2017-05-14T02:12:50.866Z,11.11
2017-05-14T02:13:50.866Z,11.13
2017-05-14T02:14:50.866Z,11.13
2017-05-14T02:15:50.872Z,11.16
2017-05-14T02:16:50.866Z,11.17
2017-05-14T02:17:50.867Z,11.17
2017-05-14T02:18:50.865Z,11.18
2017-05-14T02:19:50.938Z,11.18
2017-05-14T02:20:50.890Z,11.17
2017-05-14T02:21:50.867Z,11.17
2017-05-14T02:22:50.903Z,11.17
2017-05-14T02:23:50.923Z,11.17
2017-05-14T02:24:50.909Z,11.17
2017-05-14T02:25:50.907Z,11.17
2017-05-14T02:26:50.946Z,11.16
2017-05-14T02:27:50.908Z,11.16
2017-05-14T02:28:50.893Z,11.16
2017-05-14T02:29:50.927Z,11.16
2017-05-14T02:30:50.900Z,11.17
2017-05-14T02:31:50.911Z,11.17
2017-05-14T02:32:50.906Z,11.18
2017-05-14T02:33:50.924Z,11.20
2017-05-14T02:34:50.902Z,11.20
2017-05-14T02:35:50.882Z,11.20
2017-05-14T02:36:50.913Z,11.21
2017-05-14T02:37:50.949Z,11.24
2017-05-14T02:38:50.911Z,11.27
2017-05-14T02:39:50.978Z,11.28
2017-05-14T02:40:50.881Z,11.28
2017-05-14T02:41:50.880Z,11.28
2017-05-14T02:42:50.885Z,11.25
2017-05-14T02:43:50.883Z,11.25
2017-05-14T02:44:50.879Z,11.27
2017-05-14T02:45:50.885Z,11.25
2017-05-14T02:46:50.885Z,11.25
2017-05-14T02:47:50.887Z,11.25
2017-05-14T02:48:50.890Z,11.25
2017-05-14T02:49:50.902Z,11.28
2017-05-14T02:50:50.911Z,11.28
2017-05-14T02:51:50.878Z,11.29
2017-05-14T02:52:50.953Z,11.31
2017-05-14T02:53:51.009Z,11.31
2017-05-14T02:54:50.906Z,11.32
2017-05-14T02:55:50.915Z,11.31
2017-05-14T02:56:50.909Z,11.31
2017-05-14T02:57:50.905Z,11.32
2017-05-14T02:58:50.908Z,11.31
2017-05-14T02:59:50.890Z,11.32
2017-05-14T03:00:50.964Z,11.29
2017-05-14T03:01:50.921Z,11.28
2017-05-14T03:02:50.888Z,11.29
2017-05-14T03:03:50.926Z,11.28
2017-05-14T03:04:50.890Z,11.27
2017-05-14T03:05:50.910Z,11.27
2017-05-14T03:06:50.911Z,11.29
2017-05-14T03:07:50.915Z,11.31
2017-05-14T03:08:50.911Z,11.29
2017-05-14T03:09:50.922Z,11.31
2017-05-14T03:10:50.905Z,11.28
2017-05-14T03:11:50.889Z,11.29
2017-05-14T03:12:50.918Z,11.28
2017-05-14T03:13:50.919Z,11.27
2017-05-14T03:14:50.918Z,11.27
2017-05-14T03:15:51.025Z,11.25
2017-05-14T03:16:50.923Z,11.29
2017-05-14T03:17:50.921Z,11.31
2017-05-14T03:18:50.925Z,11.31
2017-05-14T03:19:50.895Z,11.32
2017-05-14T03:20:50.930Z,11.31
2017-05-14T03:21:50.927Z,11.32
2017-05-14T03:22:50.896Z,11.33
2017-05-14T03:23:50.932Z,11.32
2017-05-14T03:24:50.900Z,11.33
2017-05-14T03:25:50.955Z,11.33
2017-05-14T03:26:50.978Z,11.33
2017-05-14T03:27:50.936Z,11.33
2017-05-14T03:28:50.938Z,11.35
2017-05-14T03:29:50.932Z,11.35
2017-05-14T03:30:50.901Z,11.36
2017-05-14T03:31:50.924Z,11.39
2017-05-14T03:32:50.928Z,11.40
2017-05-14T03:33:51.043Z,11.42
2017-05-14T03:34:50.924Z,11.42
2017-05-14T03:35:50.942Z,11.43
2017-05-14T03:36:50.931Z,11.43
2017-05-14T03:37:50.932Z,11.46
2017-05-14T03:38:50.904Z,11.51
2017-05-14T03:39:50.941Z,11.54
2017-05-14T03:40:50.938Z,11.57
2017-05-14T03:41:50.989Z,11.58
2017-05-14T03:42:50.906Z,11.57
2017-05-14T03:43:50.931Z,11.58
2017-05-14T03:44:50.936Z,11.58
2017-05-14T03:45:51.087Z,11.58
2017-05-14T03:46:50.947Z,11.58
2017-05-14T03:47:51.045Z,11.58
2017-05-14T03:48:50.934Z,11.57
2017-05-14T03:49:50.944Z,11.57
2017-05-14T03:50:50.916Z,11.54
2017-05-14T03:51:50.916Z,11.53
2017-05-14T03:52:50.913Z,11.54
2017-05-14T03:53:51.019Z,11.53
2017-05-14T03:54:50.919Z,11.54
2017-05-14T03:55:50.914Z,11.57
2017-05-14T03:56:50.918Z,11.57
2017-05-14T03:57:50.915Z,11.57
2017-05-14T03:58:50.918Z,11.56
2017-05-14T03:59:50.921Z,11.54
2017-05-14T04:00:50.944Z,11.51
2017-05-14T04:01:50.965Z,11.51
2017-05-14T04:02:50.959Z,11.50
2017-05-14T04:03:50.958Z,11.49
2017-05-14T04:04:50.940Z,11.49
2017-05-14T04:05:50.938Z,11.47
2017-05-14T04:06:50.909Z,11.49
2017-05-14T04:07:50.944Z,11.47
2017-05-14T04:08:50.946Z,11.47
2017-05-14T04:09:50.943Z,11.46
2017-05-14T04:10:50.954Z,11.47
2017-05-14T04:11:50.929Z,11.49
2017-05-14T04:12:50.923Z,11.50
2017-05-14T04:13:51.008Z,11.49
2017-05-14T04:14:50.956Z,11.50
2017-05-14T04:15:50.944Z,11.50
2017-05-14T04:16:50.962Z,11.50
2017-05-14T04:17:50.981Z,11.51
2017-05-14T04:18:50.995Z,11.50
2017-05-14T04:19:50.958Z,11.49
2017-05-14T04:20:50.962Z,11.50
2017-05-14T04:21:50.959Z,11.49
2017-05-14T04:22:50.966Z,11.50
2017-05-14T04:23:50.966Z,11.50
2017-05-14T04:24:50.925Z,11.51
2017-05-14T04:25:50.925Z,11.51
2017-05-14T04:26:50.962Z,11.51
2017-05-14T04:27:50.950Z,11.50
2017-05-14T04:28:50.967Z,11.51
2017-05-14T04:29:50.953Z,11.51
2017-05-14T04:30:50.935Z,11.51
2017-05-14T04:31:50.933Z,11.51
2017-05-14T04:32:50.936Z,11.51
2017-05-14T04:33:50.931Z,11.50
2017-05-14T04:34:50.932Z,11.49
2017-05-14T04:35:50.934Z,11.49
2017-05-14T04:36:50.939Z,11.49
2017-05-14T04:37:50.937Z,11.50
2017-05-14T04:38:50.940Z,11.50
2017-05-14T04:39:50.936Z,11.54
2017-05-14T04:40:50.955Z,11.56
2017-05-14T04:41:50.959Z,11.56
2017-05-14T04:42:50.959Z,11.58
2017-05-14T04:43:50.961Z,11.61
2017-05-14T04:44:50.962Z,11.60
2017-05-14T04:45:50.945Z,11.61
2017-05-14T04:46:50.962Z,11.62
2017-05-14T04:47:50.965Z,11.64
2017-05-14T04:48:50.961Z,11.67
2017-05-14T04:49:50.964Z,11.69
2017-05-14T04:50:50.963Z,11.71
2017-05-14T04:51:50.964Z,11.76
2017-05-14T04:52:50.964Z,11.78
2017-05-14T04:53:50.966Z,11.80
2017-05-14T04:54:50.969Z,11.80
2017-05-14T04:55:51.072Z,11.80
2017-05-14T04:56:50.970Z,11.86
2017-05-14T04:57:50.986Z,11.89
2017-05-14T04:58:50.967Z,11.91
2017-05-14T04:59:50.965Z,11.91
2017-05-14T05:00:50.947Z,11.91
2017-05-14T05:01:50.958Z,11.94
2017-05-14T05:02:51.065Z,11.95
2017-05-14T05:03:50.974Z,11.95
2017-05-14T05:04:51.021Z,11.95
2017-05-14T05:05:50.950Z,11.95
2017-05-14T05:06:50.982Z,11.95
2017-05-14T05:07:50.967Z,11.94
2017-05-14T05:08:51.025Z,11.95
2017-05-14T05:09:50.986Z,11.97
2017-05-14T05:10:50.980Z,11.95
2017-05-14T05:11:50.984Z,11.98
2017-05-14T05:12:51.025Z,11.99
2017-05-14T05:13:50.990Z,11.99
2017-05-14T05:14:50.975Z,11.99
2017-05-14T05:15:50.980Z,12.02
2017-05-14T05:16:50.983Z,12.03
2017-05-14T05:17:50.994Z,12.06
2017-05-14T05:18:51.008Z,12.08
2017-05-14T05:19:50.981Z,12.10
2017-05-14T05:20:50.955Z,12.12
2017-05-14T05:21:50.978Z,12.14
2017-05-14T05:22:50.958Z,12.21
2017-05-14T05:23:50.954Z,12.24
2017-05-14T05:24:50.958Z,12.28
2017-05-14T05:25:50.958Z,12.35
2017-05-14T05:26:50.959Z,12.42
2017-05-14T05:27:50.958Z,12.47
2017-05-14T05:28:50.961Z,12.53
2017-05-14T05:29:50.963Z,12.55
2017-05-14T05:30:50.998Z,12.61
2017-05-14T05:31:50.994Z,12.68
2017-05-14T05:32:50.986Z,12.73
2017-05-14T05:33:50.984Z,12.73
2017-05-14T05:34:51.109Z,12.76
2017-05-14T05:35:50.976Z,12.73
2017-05-14T05:36:50.979Z,12.77
2017-05-14T05:37:51.021Z,12.83
2017-05-14T05:38:50.965Z,12.86
2017-05-14T05:39:50.992Z,12.86
2017-05-14T05:40:50.969Z,12.84
2017-05-14T05:41:50.974Z,12.86
2017-05-14T05:42:51.076Z,12.84
2017-05-14T05:43:50.975Z,12.87
2017-05-14T05:44:50.973Z,12.91
2017-05-14T05:45:50.970Z,12.89
2017-05-14T05:46:50.968Z,12.91
2017-05-14T05:47:50.971Z,12.95
2017-05-14T05:48:50.968Z,12.98
2017-05-14T05:49:50.972Z,12.95
2017-05-14T05:50:50.996Z,12.95
2017-05-14T05:51:50.995Z,12.92
2017-05-14T05:52:50.997Z,12.92
2017-05-14T05:53:50.995Z,12.92
2017-05-14T05:54:51.005Z,12.95
2017-05-14T05:55:50.996Z,13.00
2017-05-14T05:56:50.990Z,13.06
2017-05-14T05:57:50.997Z,13.09
2017-05-14T05:58:50.989Z,13.09
2017-05-14T05:59:50.995Z,13.13
2017-05-14T06:00:50.910Z,13.20
2017-05-14T06:01:50.911Z,13.25
2017-05-14T06:02:50.954Z,13.34
2017-05-14T06:03:50.916Z,13.36
2017-05-14T06:04:50.911Z,13.35
2017-05-14T06:05:51.009Z,13.39
2017-05-14T06:06:50.911Z,13.38
2017-05-14T06:07:50.910Z,13.35
2017-05-14T06:08:50.925Z,13.40
2017-05-14T06:09:50.969Z,13.42
2017-05-14T06:10:51.002Z,13.39
2017-05-14T06:11:51.002Z,13.35
2017-05-14T06:12:51.005Z,13.32
2017-05-14T06:13:51.004Z,13.36
2017-05-14T06:14:51.008Z,13.39
2017-05-14T06:15:51.003Z,13.32
2017-05-14T06:16:51.006Z,13.36
2017-05-14T06:17:51.009Z,13.35
2017-05-14T06:18:51.011Z,13.40
2017-05-14T06:19:51.009Z,13.47
2017-05-14T06:20:50.981Z,13.47
2017-05-14T06:21:51.014Z,13.49
2017-05-14T06:22:51.022Z,13.42
2017-05-14T06:23:51.108Z,13.45
2017-05-14T06:24:50.985Z,13.45
2017-05-14T06:25:51.008Z,13.49
2017-05-14T06:26:51.023Z,13.49
2017-05-14T06:27:51.023Z,13.50
2017-05-14T06:28:50.987Z,13.49
2017-05-14T06:29:51.046Z,13.53
2017-05-14T06:30:50.997Z,13.56
2017-05-14T06:31:50.994Z,13.57
2017-05-14T06:32:50.996Z,13.59
2017-05-14T06:33:50.994Z,13.59
2017-05-14T06:34:50.997Z,13.59
2017-05-14T06:35:50.997Z,13.64
2017-05-14T06:36:50.996Z,13.68
2017-05-14T06:37:50.998Z,13.62
2017-05-14T06:38:50.996Z,13.65
2017-05-14T06:39:50.997Z,13.66
2017-05-14T06:40:50.999Z,13.70
2017-05-14T06:41:50.998Z,13.76
2017-05-14T06:42:50.998Z,13.81
2017-05-14T06:43:51.001Z,13.81
2017-05-14T06:44:51.004Z,13.81
2017-05-14T06:45:51.000Z,13.84
2017-05-14T06:46:50.997Z,13.91
2017-05-14T06:47:51.002Z,13.95
2017-05-14T06:48:51.000Z,13.98
2017-05-14T06:49:51.005Z,14.02
2017-05-14T06:50:51.004Z,14.03
2017-05-14T06:51:51.034Z,14.04
2017-05-14T06:52:51.037Z,14.06
2017-05-14T06:53:51.039Z,14.11
2017-05-14T06:54:51.035Z,14.17
2017-05-14T06:55:51.030Z,14.22
2017-05-14T06:56:51.037Z,14.27
2017-05-14T06:57:51.037Z,14.27
2017-05-14T06:58:51.025Z,14.21
2017-05-14T06:59:51.063Z,14.10
2017-05-14T07:00:51.046Z,14.15
2017-05-14T07:01:51.045Z,14.20
2017-05-14T07:02:51.021Z,14.28
2017-05-14T07:03:51.043Z,14.27
2017-05-14T07:04:51.045Z,14.22
2017-05-14T07:05:51.039Z,14.29
2017-05-14T07:06:51.052Z,14.32
2017-05-14T07:07:51.035Z,14.38
2017-05-14T07:08:51.013Z,14.39
2017-05-14T07:09:51.047Z,14.43
2017-05-14T07:10:51.036Z,14.42
2017-05-14T07:11:51.036Z,14.38
2017-05-14T07:12:51.150Z,14.36
2017-05-14T07:13:51.044Z,14.39
2017-05-14T07:14:51.013Z,14.47
2017-05-14T07:15:51.041Z,14.55
2017-05-14T07:16:51.009Z,14.61
2017-05-14T07:17:51.043Z,14.62
2017-05-14T07:18:51.035Z,14.60
2017-05-14T07:19:51.056Z,14.57
2017-05-14T07:20:51.052Z,14.57
2017-05-14T07:21:51.039Z,14.55
2017-05-14T07:22:51.243Z,14.60
2017-05-14T07:23:51.093Z,14.54
2017-05-14T07:24:51.043Z,14.55
2017-05-14T07:25:51.043Z,14.55
2017-05-14T07:26:51.043Z,14.61
2017-05-14T07:27:51.044Z,14.66
2017-05-14T07:28:51.041Z,14.71
2017-05-14T07:29:51.039Z,14.72
2017-05-14T07:30:51.049Z,14.71
2017-05-14T07:31:51.042Z,14.75
2017-05-14T07:32:51.048Z,14.80
2017-05-14T07:33:51.047Z,14.76
2017-05-14T07:34:51.048Z,14.79
2017-05-14T07:35:51.047Z,14.84
2017-05-14T07:36:51.050Z,14.92
2017-05-14T07:37:51.051Z,14.96
2017-05-14T07:38:51.047Z,14.95
2017-05-14T07:39:51.049Z,14.98
2017-05-14T07:40:51.051Z,15.06
2017-05-14T07:41:51.070Z,15.14
2017-05-14T07:42:51.071Z,15.13
2017-05-14T07:43:51.061Z,15.17
2017-05-14T07:44:51.053Z,15.19
2017-05-14T07:45:51.055Z,15.22
2017-05-14T07:46:51.062Z,15.22
2017-05-14T07:47:51.070Z,15.26
2017-05-14T07:48:51.172Z,15.29
2017-05-14T07:49:51.071Z,15.28
2017-05-14T07:50:51.065Z,15.29
2017-05-14T07:51:51.055Z,15.28
2017-05-14T07:52:51.056Z,15.26
2017-05-14T07:53:51.058Z,15.24
2017-05-14T07:54:51.060Z,15.24
2017-05-14T07:55:51.062Z,15.22
2017-05-14T07:56:51.062Z,15.29
2017-05-14T07:57:51.061Z,15.29
2017-05-14T07:58:51.060Z,15.37
2017-05-14T07:59:51.059Z,15.42
2017-05-14T08:00:51.066Z,15.46
2017-05-14T08:01:51.065Z,15.47
2017-05-14T08:02:51.060Z,15.46
2017-05-14T08:03:51.057Z,15.51
2017-05-14T08:04:51.066Z,15.48
2017-05-14T08:05:51.067Z,15.44
2017-05-14T08:06:51.045Z,15.42
2017-05-14T08:07:51.034Z,15.47
2017-05-14T08:08:51.066Z,15.58
2017-05-14T08:09:51.085Z,15.64
2017-05-14T08:10:51.069Z,15.70
2017-05-14T08:11:51.040Z,15.64
2017-05-14T08:12:51.057Z,15.55
2017-05-14T08:13:51.071Z,15.57
2017-05-14T08:14:51.132Z,15.59
2017-05-14T08:15:51.186Z,15.59
2017-05-14T08:16:51.078Z,15.53
2017-05-14T08:17:51.101Z,15.53
2017-05-14T08:18:51.082Z,15.61
2017-05-14T08:19:51.079Z,15.62
2017-05-14T08:20:51.079Z,15.62
2017-05-14T08:21:51.069Z,15.61
2017-05-14T08:22:51.071Z,15.59
2017-05-14T08:23:51.069Z,15.61
2017-05-14T08:24:51.026Z,15.61
2017-05-14T08:25:51.070Z,15.64
2017-05-14T08:26:51.070Z,15.76
2017-05-14T08:27:51.075Z,15.90
2017-05-14T08:28:51.070Z,15.86
2017-05-14T08:29:51.069Z,15.95
2017-05-14T08:30:51.075Z,16.02
2017-05-14T08:31:51.074Z,15.99
2017-05-14T08:32:51.074Z,16.05
2017-05-14T08:33:51.078Z,16.13
2017-05-14T08:34:51.074Z,16.20
2017-05-14T08:35:51.078Z,16.33
2017-05-14T08:36:51.184Z,16.43
2017-05-14T08:37:51.082Z,16.48
2017-05-14T08:38:51.063Z,16.57
2017-05-14T08:39:51.082Z,16.57
2017-05-14T08:40:51.084Z,16.61
2017-05-14T08:41:51.197Z,16.68
2017-05-14T08:42:51.096Z,16.70
2017-05-14T08:43:51.092Z,16.74
2017-05-14T08:44:51.134Z,16.87
2017-05-14T08:45:51.084Z,16.97
2017-05-14T08:46:51.119Z,17.06
2017-05-14T08:47:51.095Z,17.22
2017-05-14T08:48:51.097Z,17.33
2017-05-14T08:49:51.063Z,17.51
2017-05-14T08:50:51.059Z,17.84
2017-05-14T08:51:51.091Z,18.21
2017-05-14T08:52:51.054Z,18.27
2017-05-14T08:53:51.086Z,18.43
2017-05-14T08:54:51.091Z,18.57
2017-05-14T08:55:51.088Z,18.64
2017-05-14T08:56:51.091Z,18.84
2017-05-14T08:57:51.188Z,18.86
2017-05-14T08:58:51.108Z,18.92
2017-05-14T08:59:51.071Z,18.97
2017-05-14T09:00:51.091Z,19.09
2017-05-14T09:01:51.087Z,19.35
2017-05-14T09:02:51.146Z,19.29
2017-05-14T09:03:51.147Z,19.20
2017-05-14T09:04:51.151Z,18.87
2017-05-14T09:05:51.086Z,18.65
2017-05-14T09:06:51.128Z,18.76
2017-05-14T09:07:51.104Z,18.79
2017-05-14T09:08:51.110Z,18.69
2017-05-14T09:09:51.128Z,18.61
2017-05-14T09:10:51.090Z,18.69
2017-05-14T09:11:51.212Z,18.73
2017-05-14T09:12:51.108Z,18.79
2017-05-14T09:13:51.102Z,18.84
2017-05-14T09:14:51.108Z,18.99
2017-05-14T09:15:51.111Z,19.12
2017-05-14T09:16:51.073Z,19.16
2017-05-14T09:17:51.103Z,19.31
2017-05-14T09:18:51.150Z,19.43
2017-05-14T09:19:51.086Z,19.51
2017-05-14T09:20:51.110Z,19.19
2017-05-14T09:21:51.100Z,19.16
2017-05-14T09:22:51.103Z,19.27
2017-05-14T09:23:51.126Z,19.32
2017-05-14T09:24:51.105Z,19.27
2017-05-14T09:25:51.101Z,19.12
2017-05-14T09:26:51.105Z,19.20
2017-05-14T09:27:51.103Z,19.39
2017-05-14T09:28:51.102Z,19.47
2017-05-14T09:29:51.109Z,19.62
2017-05-14T09:30:51.112Z,19.53
2017-05-14T09:31:51.070Z,19.65
2017-05-14T09:32:51.085Z,19.79
2017-05-14T09:33:51.088Z,19.87
2017-05-14T09:34:51.087Z,19.94
2017-05-14T09:35:51.086Z,20.10
2017-05-14T09:36:51.086Z,20.27
2017-05-14T09:37:51.088Z,20.24
2017-05-14T09:38:51.086Z,20.46
2017-05-14T09:39:51.090Z,20.65
2017-05-14T09:40:51.091Z,20.90
2017-05-14T09:41:51.092Z,20.88
2017-05-14T09:42:51.089Z,20.90
2017-05-14T09:43:51.095Z,20.64
2017-05-14T09:44:51.088Z,20.77
2017-05-14T09:45:51.091Z,20.56
2017-05-14T09:46:51.092Z,20.60
2017-05-14T09:47:51.095Z,20.69
2017-05-14T09:48:51.090Z,20.87
2017-05-14T09:49:51.097Z,21.32
2017-05-14T09:50:51.100Z,21.67
2017-05-14T09:51:51.095Z,21.83
2017-05-14T09:52:51.115Z,21.82
2017-05-14T09:53:51.118Z,21.51
2017-05-14T09:54:51.120Z,21.46
2017-05-14T09:55:51.150Z,21.45
2017-05-14T09:56:51.080Z,21.53
2017-05-14T09:57:51.119Z,21.65
2017-05-14T09:58:51.174Z,21.58
2017-05-14T09:59:51.122Z,21.65
2017-05-14T10:00:51.126Z,21.80
2017-05-14T10:01:51.114Z,21.97
2017-05-14T10:02:51.133Z,22.02
2017-05-14T10:03:51.155Z,22.09
2017-05-14T10:04:51.134Z,21.97
2017-05-14T10:05:51.099Z,21.89
2017-05-14T10:06:51.137Z,21.87
2017-05-14T10:07:51.127Z,22.10
2017-05-14T10:08:51.141Z,22.16
2017-05-14T10:09:51.139Z,22.45
2017-05-14T10:10:51.136Z,22.56
2017-05-14T10:11:51.161Z,22.60
2017-05-14T10:12:51.129Z,22.84
2017-05-14T10:13:51.130Z,22.30
2017-05-14T10:14:51.130Z,21.53
2017-05-14T10:15:51.130Z,21.42
2017-05-14T10:16:51.129Z,21.20
2017-05-14T10:17:51.130Z,20.97
2017-05-14T10:18:51.134Z,21.09
2017-05-14T10:20:51.140Z,21.22
2017-05-14T10:21:51.126Z,21.39
2017-05-14T10:22:51.110Z,21.58
2017-05-14T10:23:51.113Z,21.90
2017-05-14T10:24:51.111Z,22.17
2017-05-14T10:25:51.115Z,22.38
2017-05-14T10:26:51.117Z,22.53
2017-05-14T10:27:51.110Z,22.68
2017-05-14T10:28:51.113Z,22.77
2017-05-14T10:29:51.140Z,22.88
2017-05-14T10:30:51.113Z,22.84
2017-05-14T10:31:51.116Z,22.91
2017-05-14T10:32:51.117Z,22.79
2017-05-14T10:33:51.115Z,22.76
2017-05-14T10:34:51.116Z,22.67
2017-05-14T10:35:51.116Z,22.63
2017-05-14T10:36:51.115Z,22.38
2017-05-14T10:37:51.117Z,22.09
2017-05-14T10:38:51.118Z,21.79
2017-05-14T10:39:51.116Z,21.76
2017-05-14T10:40:51.122Z,22.12
2017-05-14T10:41:51.117Z,22.20
2017-05-14T10:42:51.137Z,22.32
2017-05-14T10:43:51.141Z,22.43
2017-05-14T10:44:51.143Z,22.48
2017-05-14T10:45:51.142Z,22.64
2017-05-14T10:46:51.132Z,22.90
2017-05-14T10:47:51.212Z,23.11
2017-05-14T10:48:51.142Z,23.05
2017-05-14T10:49:51.147Z,23.28
2017-05-14T10:50:51.151Z,23.17
2017-05-14T10:51:51.155Z,22.98
2017-05-14T10:52:51.140Z,22.65
2017-05-14T10:53:51.147Z,22.63
2017-05-14T10:54:51.149Z,22.88
2017-05-14T10:55:51.145Z,22.97
2017-05-14T10:56:51.146Z,23.09
2017-05-14T10:57:51.146Z,23.26
2017-05-14T10:58:51.142Z,23.37
2017-05-14T10:59:51.157Z,23.61
2017-05-14T11:00:51.147Z,23.68
2017-05-14T11:01:51.147Z,23.50
2017-05-14T11:02:51.141Z,23.63
2017-05-14T11:03:51.145Z,24.00
2017-05-14T11:04:51.155Z,24.02
2017-05-14T11:05:51.143Z,24.14
2017-05-14T11:06:50.993Z,24.12
2017-05-14T11:07:51.101Z,24.27
2017-05-14T11:08:51.061Z,24.30
2017-05-14T11:09:51.023Z,24.20
2017-05-14T11:10:51.070Z,24.53
2017-05-14T11:11:50.994Z,24.47
2017-05-14T11:12:51.103Z,24.37
2017-05-14T11:13:51.069Z,24.30
2017-05-14T11:14:51.108Z,24.33
2017-05-14T11:15:51.067Z,24.42
2017-05-14T11:16:51.285Z,24.67
2017-05-14T11:17:51.172Z,24.93
2017-05-14T11:18:51.170Z,24.97
2017-05-14T11:19:51.134Z,24.98
2017-05-14T11:20:51.161Z,24.77
2017-05-14T11:21:51.176Z,24.60
2017-05-14T11:22:51.170Z,24.68
2017-05-14T11:23:51.175Z,24.36
2017-05-14T11:24:51.134Z,23.96
2017-05-14T11:25:51.189Z,23.71
2017-05-14T11:26:51.140Z,23.54
2017-05-14T11:27:51.142Z,23.56
2017-05-14T11:28:51.144Z,23.68
2017-05-14T11:29:51.147Z,24.05
2017-05-14T11:30:51.145Z,24.18
2017-05-14T11:31:51.148Z,24.18
2017-05-14T11:32:51.145Z,24.33
2017-05-14T11:33:51.140Z,24.04
2017-05-14T11:34:51.143Z,24.19
2017-05-14T11:35:51.143Z,23.68
2017-05-14T11:36:51.183Z,23.45
2017-05-14T11:37:51.173Z,23.27
2017-05-14T11:38:51.141Z,23.09
2017-05-14T11:39:51.145Z,22.64
2017-05-14T11:40:51.180Z,22.59
2017-05-14T11:41:51.152Z,22.39
2017-05-14T11:42:51.164Z,22.36
2017-05-14T11:43:51.184Z,22.64
2017-05-14T11:44:51.173Z,22.95
2017-05-14T11:45:51.146Z,23.11
2017-05-14T11:46:51.181Z,23.31
2017-05-14T11:47:51.176Z,23.65
2017-05-14T11:48:51.183Z,23.37
2017-05-14T11:49:51.182Z,23.11
2017-05-14T11:50:51.188Z,23.05
2017-05-14T11:51:51.148Z,22.97
2017-05-14T11:52:51.185Z,22.94
2017-05-14T11:53:51.178Z,22.97
2017-05-14T11:54:51.186Z,22.97
2017-05-14T11:55:51.176Z,23.16
2017-05-14T11:56:51.172Z,23.45
2017-05-14T11:57:51.170Z,23.58
2017-05-14T11:58:51.154Z,23.57
2017-05-14T11:59:51.186Z,23.44
2017-05-14T12:00:51.196Z,23.56
2017-05-14T12:01:51.186Z,23.96
2017-05-14T12:02:51.259Z,24.19
2017-05-14T12:03:51.192Z,24.49
2017-05-14T12:04:51.214Z,24.70
2017-05-14T12:05:51.185Z,24.71
2017-05-14T12:06:51.197Z,24.77
2017-05-14T12:07:51.165Z,24.51
2017-05-14T12:08:51.160Z,24.12
2017-05-14T12:09:51.199Z,24.05
2017-05-14T12:10:51.188Z,23.54
2017-05-14T12:11:51.190Z,23.15
2017-05-14T12:12:51.218Z,23.05
2017-05-14T12:13:51.200Z,22.93
2017-05-14T12:14:51.225Z,23.12
2017-05-14T12:15:51.200Z,23.00
2017-05-14T12:16:51.308Z,22.53
2017-05-14T12:17:51.205Z,22.46
2017-05-14T12:18:51.243Z,22.49
2017-05-14T12:19:51.200Z,22.36
2017-05-14T12:20:51.195Z,22.36
2017-05-14T12:21:51.186Z,22.45
2017-05-14T12:22:51.194Z,22.57
2017-05-14T12:23:51.245Z,22.49
2017-05-14T12:24:51.200Z,22.46
2017-05-14T12:25:51.260Z,22.41
2017-05-14T12:26:51.212Z,22.38
2017-05-14T12:27:51.169Z,22.38
2017-05-14T12:28:51.173Z,22.38
2017-05-14T12:29:51.171Z,22.36
2017-05-14T12:30:51.173Z,22.32
2017-05-14T12:31:51.174Z,22.04
2017-05-14T12:32:51.172Z,21.91
2017-05-14T12:33:51.176Z,21.97
2017-05-14T12:34:51.177Z,22.04
2017-05-14T12:35:51.176Z,22.20
2017-05-14T12:36:51.205Z,22.34
2017-05-14T12:37:51.210Z,22.31
2017-05-14T12:38:51.213Z,22.27
2017-05-14T12:39:51.174Z,22.30
2017-05-14T12:40:51.190Z,22.49
2017-05-14T12:41:51.179Z,22.76
2017-05-14T12:42:51.207Z,23.05
2017-05-14T12:43:51.216Z,23.31
2017-05-14T12:44:51.283Z,23.64
2017-05-14T12:45:51.214Z,24.12
2017-05-14T12:46:51.201Z,24.44
2017-05-14T12:47:51.214Z,24.77
2017-05-14T12:48:51.240Z,25.01
2017-05-14T12:49:51.215Z,24.85
2017-05-14T12:50:51.263Z,24.48
2017-05-14T12:51:51.223Z,24.14
2017-05-14T12:52:51.183Z,24.16
2017-05-14T12:53:51.207Z,23.74